Wilson Volos — V2FD5 — position and weather

sailwx.info

Track history (hours):
 
Tides and Currents Weather Stations Pressure Air Temp Water Temp Dewpoint Dewpoint Depression Visibility Wind Speed Wind Dir Waves Ship Positions

Wilson Volos

Last reported at 2017-Sep-22 02:00 UTC. Time now 2017-Sep-26 02:05 UTC.
Position N 50°58' E 001°22'.

Length 114 m; draft 6.5 m.

Type: Cargo ship. MMSI: 305641000.

Date/timePositionNaut miles runAvg speedWind from/ knotsBaromVisibWave heightAir tempDewpointWater temp
2017-Sep-22 02:00N 50°58' E 001°22'4 8.2
2017-Sep-22 01:30N 51°01' E 001°26'4 7.9
2017-Sep-22 01:00N 51°04' E 001°31'4 7.6
2017-Sep-22 00:30N 51°06' E 001°35'4 8.0
2017-Sep-22 00:00N 51°09' E 001°40'4 8.9
2017-Sep-21 23:30N 51°12' E 001°45'510.4
2017-Sep-21 23:00N 51°17' E 001°49'611.7
2017-Sep-21 22:30N 51°22' E 001°53'612.8
2017-Sep-21 22:00N 51°28' E 001°58'713.1
2017-Sep-21 21:30N 51°33' E 002°05'713.3
2017-Sep-21 21:00N 51°38' E 002°12'713.3
2017-Sep-21 20:30N 51°43' E 002°19'34610.4
2017-Sep-20 11:08N 56°34' E 007°40'211.1
2017-Sep-20 10:59N 56°35' E 007°42'510.9
2017-Sep-20 10:29N 56°40' E 007°47'510.6
2017-Sep-20 09:59N 56°44' E 007°52'11110.0
2017-Sep-19 22:57N 57°47' E 010°40'510.7
2017-Sep-19 22:30N 57°47' E 010°49'611.4
2017-Sep-19 22:00N 57°43' E 010°57'611.5
2017-Sep-19 21:30N 57°39' E 011°04'611.3
2017-Sep-19 21:00N 57°35' E 011°12'611.5
2017-Sep-19 20:30N 57°31' E 011°20'611.2
2017-Sep-19 20:00N 57°27' E 011°26'611.1
2017-Sep-19 19:30N 57°21' E 011°29'510.8
2017-Sep-19 19:00N 57°16' E 011°33'7510.2
2017-Sep-19 11:38N 56°08' E 012°30'110.7
2017-Sep-19 11:30N 56°07' E 012°32'510.9
2017-Sep-19 11:00N 56°04' E 012°39'510.5
2017-Sep-19 10:30N 55°59' E 012°42'510.3
2017-Sep-19 10:00N 55°54' E 012°44'510.8
2017-Sep-19 09:30N 55°48' E 012°43'511.0
2017-Sep-19 09:00N 55°43' E 012°42'510.4
2017-Sep-19 08:30N 55°38' E 012°42'5 9.9
2017-Sep-19 08:00N 55°33' E 012°43'610.5
2017-Sep-19 07:27N 55°27' E 012°42'611.0
2017-Sep-19 06:57N 55°21' E 012°41'4110.2
2017-Sep-19 02:53N 55°14' E 013°53'810.6
2017-Sep-19 02:08N 55°14' E 014°07'510.8
2017-Sep-19 01:42N 55°14' E 014°15'410.6
2017-Sep-19 01:21N 55°16' E 014°20'2911.1
2017-Sep-18 22:44N 55°35' E 014°59'511.1
2017-Sep-18 22:17N 55°37' E 015°07'311.0
2017-Sep-18 22:00N 55°39' E 015°12'511.0
2017-Sep-18 21:30N 55°41' E 015°20'510.7
2017-Sep-18 21:00N 55°44' E 015°28'511.0
2017-Sep-18 20:30N 55°47' E 015°36'510.8
2017-Sep-18 20:00N 55°50' E 015°45'510.8
2017-Sep-18 19:30N 55°52' E 015°53'510.7
2017-Sep-18 19:00N 55°55' E 016°01'510.8
2017-Sep-18 18:30N 55°58' E 016°10'510.6
2017-Sep-18 18:00N 56°00' E 016°18'510.5
2017-Sep-18 17:30N 56°03' E 016°26'510.5
2017-Sep-18 17:00N 56°05' E 016°34'  
2017-Sep-15 14:26N 54°57' E 019°12'511.0
2017-Sep-15 14:00N 54°53' E 019°09'510.9
2017-Sep-15 13:30N 54°48' E 019°05'510.6
2017-Sep-15 13:00N 54°43' E 019°00'510.2
2017-Sep-15 12:30N 54°39' E 018°57'5 9.9
2017-Sep-15 12:00N 54°34' E 018°53'510.9
2017-Sep-15 11:30N 54°30' E 018°46'611.2
2017-Sep-15 11:00N 54°26' E 018°40'3 5.7
2017-Sep-15 10:30N 54°24' E 018°40'1 2.6
2017-Sep-15 10:00N 54°22' E 018°40'0 0.0
2017-Sep-15 09:30N 54°22' E 018°40'0 0.0
2017-Sep-15 09:00N 54°22' E 018°40'0 0.0
2017-Sep-15 08:30N 54°22' E 018°40'0 0.0
2017-Sep-15 08:00N 54°22' E 018°40'0 0.0
2017-Sep-15 07:29N 54°22' E 018°40'0 0.0
2017-Sep-15 06:59N 54°22' E 018°40'0 0.0
2017-Sep-15 06:29N 54°22' E 018°40'0 0.0
2017-Sep-15 05:59N 54°22' E 018°40'0 0.0
2017-Sep-15 05:29N 54°22' E 018°40'0 0.0
2017-Sep-15 04:59N 54°22' E 018°40'0 0.0
2017-Sep-15 04:29N 54°22' E 018°40'0 0.0
2017-Sep-15 04:00N 54°22' E 018°40'0 0.0
2017-Sep-15 03:29N 54°22' E 018°40'0 0.0
2017-Sep-15 02:59N 54°22' E 018°40'0 0.0
2017-Sep-15 02:29N 54°22' E 018°40'0 0.0
2017-Sep-15 02:00N 54°22' E 018°40'0 0.0
2017-Sep-15 01:29N 54°22' E 018°40'0 0.0
2017-Sep-15 00:59N 54°22' E 018°40'0 0.0
2017-Sep-15 00:23N 54°22' E 018°40'0 0.0
2017-Sep-14 23:59N 54°22' E 018°40'0 0.0
2017-Sep-14 23:29N 54°22' E 018°40'0 0.0
2017-Sep-14 22:59N 54°22' E 018°40'0 0.0
2017-Sep-14 22:29N 54°22' E 018°40'0 0.0
2017-Sep-14 21:59N 54°22' E 018°40'0 0.0
2017-Sep-14 21:29N 54°22' E 018°40'0 0.0
2017-Sep-14 20:59N 54°22' E 018°40'0 0.0
2017-Sep-14 20:29N 54°22' E 018°40'0 0.0
2017-Sep-14 19:59N 54°22' E 018°40'0 0.0
2017-Sep-14 19:29N 54°22' E 018°40'0 0.0
2017-Sep-14 18:59N 54°22' E 018°40'0 0.0
2017-Sep-14 18:29N 54°22' E 018°40'0 0.0
2017-Sep-14 17:59N 54°22' E 018°40'0 0.0
2017-Sep-14 17:23N 54°22' E 018°40'0 0.0
2017-Sep-14 16:56N 54°22' E 018°40'0 0.0
2017-Sep-14 16:29N 54°22' E 018°40'0 0.0
2017-Sep-14 15:59N 54°22' E 018°40'0 0.0
2017-Sep-14 15:29N 54°22' E 018°40'0 0.0
2017-Sep-14 14:59N 54°22' E 018°40'0 0.0
2017-Sep-14 14:29N 54°22' E 018°40'0 0.0
2017-Sep-14 13:59N 54°22' E 018°40'0 0.0
2017-Sep-14 13:29N 54°22' E 018°40'0 0.0
2017-Sep-14 12:59N 54°22' E 018°40'0 0.0
2017-Sep-14 12:29N 54°22' E 018°40'0 0.0
2017-Sep-14 11:59N 54°22' E 018°40'0 0.0
2017-Sep-14 11:29N 54°22' E 018°40'0 0.0
2017-Sep-14 10:59N 54°22' E 018°40'0 0.0
2017-Sep-14 10:29N 54°22' E 018°40'0 0.0
2017-Sep-14 09:56N 54°22' E 018°40'0 0.0
2017-Sep-14 09:29N 54°22' E 018°40'0 0.0
2017-Sep-14 08:59N 54°22' E 018°40'0 0.0
2017-Sep-14 08:29N 54°22' E 018°40'0 0.0
2017-Sep-14 07:59N 54°22' E 018°40'0 0.0
2017-Sep-14 07:29N 54°22' E 018°40'0 0.0
2017-Sep-14 06:59N 54°22' E 018°40'0 0.0
2017-Sep-14 06:29N 54°22' E 018°40'0 0.0
2017-Sep-14 05:59N 54°22' E 018°40'0 0.0
2017-Sep-14 05:29N 54°22' E 018°40'0 0.0
2017-Sep-14 04:59N 54°22' E 018°40'0 0.0
2017-Sep-14 04:29N 54°22' E 018°40'0 0.0
2017-Sep-14 03:59N 54°22' E 018°40'0 0.0
2017-Sep-14 03:23N 54°22' E 018°40'0 0.0
2017-Sep-14 02:59N 54°22' E 018°40'0 0.0
2017-Sep-14 02:29N 54°22' E 018°40'0 0.0
2017-Sep-14 01:59N 54°22' E 018°40'0 0.0
2017-Sep-14 01:29N 54°22' E 018°40'0 0.0
2017-Sep-14 00:59N 54°22' E 018°40'0 0.0
2017-Sep-14 00:29N 54°22' E 018°40'0 0.0
2017-Sep-13 23:59N 54°22' E 018°40'0 0.0
2017-Sep-13 23:29N 54°22' E 018°40'0 0.0
2017-Sep-13 22:59N 54°22' E 018°40'0 0.0
2017-Sep-13 22:29N 54°22' E 018°40'0 0.0
2017-Sep-13 21:59N 54°22' E 018°40'0 0.0
2017-Sep-13 21:26N 54°22' E 018°40'0 0.0
2017-Sep-13 20:59N 54°22' E 018°40'0 0.0
2017-Sep-13 20:29N 54°22' E 018°40'0 0.0
2017-Sep-13 19:59N 54°22' E 018°40'0 0.0
2017-Sep-13 19:26N 54°22' E 018°40'0 0.0
2017-Sep-13 18:59N 54°22' E 018°40'0 0.0
2017-Sep-13 18:29N 54°22' E 018°40'0 0.0
2017-Sep-13 17:59N 54°22' E 018°40'0 0.0
2017-Sep-13 17:29N 54°22' E 018°40'0 0.0
2017-Sep-13 16:59N 54°22' E 018°40'0 0.0
2017-Sep-13 16:26N 54°22' E 018°40'0 0.0
2017-Sep-13 15:59N 54°22' E 018°40'0 0.0
2017-Sep-13 15:29N 54°22' E 018°40'0 0.0
2017-Sep-13 14:59N 54°22' E 018°40'0 0.0
2017-Sep-13 14:29N 54°22' E 018°40'0 0.0
2017-Sep-13 13:59N 54°22' E 018°40'0 0.0
2017-Sep-13 13:20N 54°22' E 018°40'0 0.0
2017-Sep-13 12:59N 54°22' E 018°40'0 0.0
2017-Sep-13 12:29N 54°22' E 018°40'0 0.0
2017-Sep-13 11:59N 54°22' E 018°40'0 0.0
2017-Sep-13 11:29N 54°22' E 018°40'0 0.0
2017-Sep-13 10:56N 54°22' E 018°40'0 0.0
2017-Sep-13 10:30N 54°22' E 018°40'0 0.0
2017-Sep-13 10:00N 54°22' E 018°40'0 0.0
2017-Sep-13 09:30N 54°22' E 018°40'0 0.0
2017-Sep-13 09:00N 54°22' E 018°40'0 0.0
2017-Sep-13 08:27N 54°22' E 018°40'0 0.0
2017-Sep-13 07:57N 54°22' E 018°40'0 0.0
2017-Sep-13 07:30N 54°22' E 018°40'0 0.0
2017-Sep-13 07:00N 54°22' E 018°40'0 0.0
2017-Sep-13 06:30N 54°22' E 018°40'0 0.0
2017-Sep-13 06:00N 54°22' E 018°40'0 0.0
2017-Sep-13 05:30N 54°22' E 018°40'0 0.0
2017-Sep-13 05:00N 54°22' E 018°40'0 0.0
2017-Sep-13 04:30N 54°22' E 018°40'0 0.0
2017-Sep-13 04:00N 54°22' E 018°40'0 0.0
2017-Sep-13 03:30N 54°22' E 018°40'0 0.0
2017-Sep-13 03:00N 54°22' E 018°40'0 0.0
2017-Sep-13 02:27N 54°22' E 018°40'0 0.0
2017-Sep-13 02:00N 54°22' E 018°40'0 0.0
2017-Sep-13 01:30N 54°22' E 018°40'0 0.0
2017-Sep-13 01:00N 54°22' E 018°40'0 0.0
2017-Sep-13 00:27N 54°22' E 018°40'0 0.0
2017-Sep-13 00:00N 54°22' E 018°40'0 0.0
2017-Sep-12 23:30N 54°22' E 018°40'0 0.0
2017-Sep-12 23:00N 54°22' E 018°40'0 0.0
2017-Sep-12 22:30N 54°22' E 018°40'0 0.6
2017-Sep-12 22:00N 54°22' E 018°40'1 3.0
2017-Sep-12 21:31N 54°23' E 018°40'3 5.1
2017-Sep-12 21:00N 54°26' E 018°39'1 1.1
2017-Sep-12 20:28N 54°26' E 018°39'0 0.0
2017-Sep-12 19:58N 54°26' E 018°39'0 0.0
2017-Sep-12 19:28N 54°26' E 018°39'0 0.0
2017-Sep-12 18:58N 54°26' E 018°39'0 0.0
2017-Sep-12 18:28N 54°26' E 018°39'0 0.0
2017-Sep-12 17:58N 54°26' E 018°39'0 0.0
2017-Sep-12 17:28N 54°26' E 018°39'0 0.0
2017-Sep-12 16:58N 54°26' E 018°39'0 0.0
2017-Sep-12 16:25N 54°26' E 018°39'0 0.0
2017-Sep-12 15:58N 54°26' E 018°39'0 0.1
2017-Sep-12 15:28N 54°26' E 018°39'0 0.0
2017-Sep-12 14:58N 54°26' E 018°39'0 0.0
2017-Sep-12 14:28N 54°26' E 018°39'0 0.0
2017-Sep-12 13:58N 54°26' E 018°39'0 0.0
2017-Sep-12 13:28N 54°26' E 018°39'0 0.0
2017-Sep-12 12:58N 54°26' E 018°39'0 0.0
2017-Sep-12 12:28N 54°26' E 018°39'0 0.0
2017-Sep-12 11:58N 54°26' E 018°39'0 0.0
2017-Sep-12 11:28N 54°26' E 018°39'0 0.0
2017-Sep-12 10:58N 54°26' E 018°39'0 0.0
2017-Sep-12 10:28N 54°26' E 018°39'0 0.0
2017-Sep-12 09:58N 54°26' E 018°39'0 0.1
2017-Sep-12 09:28N 54°26' E 018°39'0 0.1
2017-Sep-12 08:55N 54°26' E 018°39'0 0.0
2017-Sep-12 08:28N 54°26' E 018°39'0 0.0
2017-Sep-12 07:58N 54°26' E 018°39'0 0.0
2017-Sep-12 07:25N 54°26' E 018°39'0 0.0
2017-Sep-12 06:58N 54°26' E 018°39'0 0.0
2017-Sep-12 06:28N 54°26' E 018°39'0 0.1
2017-Sep-12 05:58N 54°26' E 018°39'0 0.0
2017-Sep-12 05:28N 54°26' E 018°39'0 0.0
2017-Sep-12 04:58N 54°26' E 018°39'0 0.0
2017-Sep-12 04:28N 54°26' E 018°39'0 0.0
2017-Sep-12 03:58N 54°26' E 018°39'0 0.0
2017-Sep-12 03:28N 54°26' E 018°39'0 0.0
2017-Sep-12 02:58N 54°26' E 018°39'0 0.0
2017-Sep-12 02:28N 54°26' E 018°39'  
Track history (hours):
 
Tides and Currents Weather Stations Pressure Air Temp Water Temp Dewpoint Dewpoint Depression Visibility Wind Speed Wind Dir Waves Ship Positions

Wilson Volos

Last reported at 2017-Sep-22 02:00 UTC. Time now 2017-Sep-26 02:05 UTC.
Position N 50°58' E 001°22'.

Length 114 m; draft 6.5 m.

Type: Cargo ship. MMSI: 305641000.

Date/timePositionNaut miles runAvg speedWind from/ knotsBaromVisibWave heightAir tempDewpointWater temp
2017-Sep-22 02:00N 50°58' E 001°22'4 8.2
2017-Sep-22 01:30N 51°01' E 001°26'4 7.9
2017-Sep-22 01:00N 51°04' E 001°31'4 7.6
2017-Sep-22 00:30N 51°06' E 001°35'4 8.0
2017-Sep-22 00:00N 51°09' E 001°40'4 8.9
2017-Sep-21 23:30N 51°12' E 001°45'510.4
2017-Sep-21 23:00N 51°17' E 001°49'611.7
2017-Sep-21 22:30N 51°22' E 001°53'612.8
2017-Sep-21 22:00N 51°28' E 001°58'713.1
2017-Sep-21 21:30N 51°33' E 002°05'713.3
2017-Sep-21 21:00N 51°38' E 002°12'713.3
2017-Sep-21 20:30N 51°43' E 002°19'34610.4
2017-Sep-20 11:08N 56°34' E 007°40'211.1
2017-Sep-20 10:59N 56°35' E 007°42'510.9
2017-Sep-20 10:29N 56°40' E 007°47'510.6
2017-Sep-20 09:59N 56°44' E 007°52'11110.0
2017-Sep-19 22:57N 57°47' E 010°40'510.7
2017-Sep-19 22:30N 57°47' E 010°49'611.4
2017-Sep-19 22:00N 57°43' E 010°57'611.5
2017-Sep-19 21:30N 57°39' E 011°04'611.3
2017-Sep-19 21:00N 57°35' E 011°12'611.5
2017-Sep-19 20:30N 57°31' E 011°20'611.2
2017-Sep-19 20:00N 57°27' E 011°26'611.1
2017-Sep-19 19:30N 57°21' E 011°29'510.8
2017-Sep-19 19:00N 57°16' E 011°33'7510.2
2017-Sep-19 11:38N 56°08' E 012°30'110.7
2017-Sep-19 11:30N 56°07' E 012°32'510.9
2017-Sep-19 11:00N 56°04' E 012°39'510.5
2017-Sep-19 10:30N 55°59' E 012°42'510.3
2017-Sep-19 10:00N 55°54' E 012°44'510.8
2017-Sep-19 09:30N 55°48' E 012°43'511.0
2017-Sep-19 09:00N 55°43' E 012°42'510.4
2017-Sep-19 08:30N 55°38' E 012°42'5 9.9
2017-Sep-19 08:00N 55°33' E 012°43'610.5
2017-Sep-19 07:27N 55°27' E 012°42'611.0
2017-Sep-19 06:57N 55°21' E 012°41'4110.2
2017-Sep-19 02:53N 55°14' E 013°53'810.6
2017-Sep-19 02:08N 55°14' E 014°07'510.8
2017-Sep-19 01:42N 55°14' E 014°15'410.6
2017-Sep-19 01:21N 55°16' E 014°20'2911.1
2017-Sep-18 22:44N 55°35' E 014°59'511.1
2017-Sep-18 22:17N 55°37' E 015°07'311.0
2017-Sep-18 22:00N 55°39' E 015°12'511.0
2017-Sep-18 21:30N 55°41' E 015°20'510.7
2017-Sep-18 21:00N 55°44' E 015°28'511.0
2017-Sep-18 20:30N 55°47' E 015°36'510.8
2017-Sep-18 20:00N 55°50' E 015°45'510.8
2017-Sep-18 19:30N 55°52' E 015°53'510.7
2017-Sep-18 19:00N 55°55' E 016°01'510.8
2017-Sep-18 18:30N 55°58' E 016°10'510.6
2017-Sep-18 18:00N 56°00' E 016°18'510.5
2017-Sep-18 17:30N 56°03' E 016°26'510.5
2017-Sep-18 17:00N 56°05' E 016°34'  
2017-Sep-15 14:26N 54°57' E 019°12'511.0
2017-Sep-15 14:00N 54°53' E 019°09'510.9
2017-Sep-15 13:30N 54°48' E 019°05'510.6
2017-Sep-15 13:00N 54°43' E 019°00'510.2
2017-Sep-15 12:30N 54°39' E 018°57'5 9.9
2017-Sep-15 12:00N 54°34' E 018°53'510.9
2017-Sep-15 11:30N 54°30' E 018°46'611.2
2017-Sep-15 11:00N 54°26' E 018°40'3 5.7
2017-Sep-15 10:30N 54°24' E 018°40'1 2.6
2017-Sep-15 10:00N 54°22' E 018°40'0 0.0
2017-Sep-15 09:30N 54°22' E 018°40'0 0.0
2017-Sep-15 09:00N 54°22' E 018°40'0 0.0
2017-Sep-15 08:30N 54°22' E 018°40'0 0.0
2017-Sep-15 08:00N 54°22' E 018°40'0 0.0
2017-Sep-15 07:29N 54°22' E 018°40'0 0.0
2017-Sep-15 06:59N 54°22' E 018°40'0 0.0
2017-Sep-15 06:29N 54°22' E 018°40'0 0.0
2017-Sep-15 05:59N 54°22' E 018°40'0 0.0
2017-Sep-15 05:29N 54°22' E 018°40'0 0.0
2017-Sep-15 04:59N 54°22' E 018°40'0 0.0
2017-Sep-15 04:29N 54°22' E 018°40'0 0.0
2017-Sep-15 04:00N 54°22' E 018°40'0 0.0
2017-Sep-15 03:29N 54°22' E 018°40'0 0.0
2017-Sep-15 02:59N 54°22' E 018°40'0 0.0
2017-Sep-15 02:29N 54°22' E 018°40'0 0.0
2017-Sep-15 02:00N 54°22' E 018°40'0 0.0
2017-Sep-15 01:29N 54°22' E 018°40'0 0.0
2017-Sep-15 00:59N 54°22' E 018°40'0 0.0
2017-Sep-15 00:23N 54°22' E 018°40'0 0.0
2017-Sep-14 23:59N 54°22' E 018°40'0 0.0
2017-Sep-14 23:29N 54°22' E 018°40'0 0.0
2017-Sep-14 22:59N 54°22' E 018°40'0 0.0
2017-Sep-14 22:29N 54°22' E 018°40'0 0.0
2017-Sep-14 21:59N 54°22' E 018°40'0 0.0
2017-Sep-14 21:29N 54°22' E 018°40'0 0.0
2017-Sep-14 20:59N 54°22' E 018°40'0 0.0
2017-Sep-14 20:29N 54°22' E 018°40'0 0.0
2017-Sep-14 19:59N 54°22' E 018°40'0 0.0
2017-Sep-14 19:29N 54°22' E 018°40'0 0.0
2017-Sep-14 18:59N 54°22' E 018°40'0 0.0
2017-Sep-14 18:29N 54°22' E 018°40'0 0.0
2017-Sep-14 17:59N 54°22' E 018°40'0 0.0
2017-Sep-14 17:23N 54°22' E 018°40'0 0.0
2017-Sep-14 16:56N 54°22' E 018°40'0 0.0
2017-Sep-14 16:29N 54°22' E 018°40'0 0.0
2017-Sep-14 15:59N 54°22' E 018°40'0 0.0
2017-Sep-14 15:29N 54°22' E 018°40'0 0.0
2017-Sep-14 14:59N 54°22' E 018°40'0 0.0
2017-Sep-14 14:29N 54°22' E 018°40'0 0.0
2017-Sep-14 13:59N 54°22' E 018°40'0 0.0
2017-Sep-14 13:29N 54°22' E 018°40'0 0.0
2017-Sep-14 12:59N 54°22' E 018°40'0 0.0
2017-Sep-14 12:29N 54°22' E 018°40'0 0.0
2017-Sep-14 11:59N 54°22' E 018°40'0 0.0
2017-Sep-14 11:29N 54°22' E 018°40'0 0.0
2017-Sep-14 10:59N 54°22' E 018°40'0 0.0
2017-Sep-14 10:29N 54°22' E 018°40'0 0.0
2017-Sep-14 09:56N 54°22' E 018°40'0 0.0
2017-Sep-14 09:29N 54°22' E 018°40'0 0.0
2017-Sep-14 08:59N 54°22' E 018°40'0 0.0
2017-Sep-14 08:29N 54°22' E 018°40'0 0.0
2017-Sep-14 07:59N 54°22' E 018°40'0 0.0
2017-Sep-14 07:29N 54°22' E 018°40'0 0.0
2017-Sep-14 06:59N 54°22' E 018°40'0 0.0
2017-Sep-14 06:29N 54°22' E 018°40'0 0.0
2017-Sep-14 05:59N 54°22' E 018°40'0 0.0
2017-Sep-14 05:29N 54°22' E 018°40'0 0.0
2017-Sep-14 04:59N 54°22' E 018°40'0 0.0
2017-Sep-14 04:29N 54°22' E 018°40'0 0.0
2017-Sep-14 03:59N 54°22' E 018°40'0 0.0
2017-Sep-14 03:23N 54°22' E 018°40'0 0.0
2017-Sep-14 02:59N 54°22' E 018°40'0 0.0
2017-Sep-14 02:29N 54°22' E 018°40'0 0.0
2017-Sep-14 01:59N 54°22' E 018°40'0 0.0
2017-Sep-14 01:29N 54°22' E 018°40'0 0.0
2017-Sep-14 00:59N 54°22' E 018°40'0 0.0
2017-Sep-14 00:29N 54°22' E 018°40'0 0.0
2017-Sep-13 23:59N 54°22' E 018°40'0 0.0
2017-Sep-13 23:29N 54°22' E 018°40'0 0.0
2017-Sep-13 22:59N 54°22' E 018°40'0 0.0
2017-Sep-13 22:29N 54°22' E 018°40'0 0.0
2017-Sep-13 21:59N 54°22' E 018°40'0 0.0
2017-Sep-13 21:26N 54°22' E 018°40'0 0.0
2017-Sep-13 20:59N 54°22' E 018°40'0 0.0
2017-Sep-13 20:29N 54°22' E 018°40'0 0.0
2017-Sep-13 19:59N 54°22' E 018°40'0 0.0
2017-Sep-13 19:26N 54°22' E 018°40'0 0.0
2017-Sep-13 18:59N 54°22' E 018°40'0 0.0
2017-Sep-13 18:29N 54°22' E 018°40'0 0.0
2017-Sep-13 17:59N 54°22' E 018°40'0 0.0
2017-Sep-13 17:29N 54°22' E 018°40'0 0.0
2017-Sep-13 16:59N 54°22' E 018°40'0 0.0
2017-Sep-13 16:26N 54°22' E 018°40'0 0.0
2017-Sep-13 15:59N 54°22' E 018°40'0 0.0
2017-Sep-13 15:29N 54°22' E 018°40'0 0.0
2017-Sep-13 14:59N 54°22' E 018°40'0 0.0
2017-Sep-13 14:29N 54°22' E 018°40'0 0.0
2017-Sep-13 13:59N 54°22' E 018°40'0 0.0
2017-Sep-13 13:20N 54°22' E 018°40'0 0.0
2017-Sep-13 12:59N 54°22' E 018°40'0 0.0
2017-Sep-13 12:29N 54°22' E 018°40'0 0.0
2017-Sep-13 11:59N 54°22' E 018°40'0 0.0
2017-Sep-13 11:29N 54°22' E 018°40'0 0.0
2017-Sep-13 10:56N 54°22' E 018°40'0 0.0
2017-Sep-13 10:30N 54°22' E 018°40'0 0.0
2017-Sep-13 10:00N 54°22' E 018°40'0 0.0
2017-Sep-13 09:30N 54°22' E 018°40'0 0.0
2017-Sep-13 09:00N 54°22' E 018°40'0 0.0
2017-Sep-13 08:27N 54°22' E 018°40'0 0.0
2017-Sep-13 07:57N 54°22' E 018°40'0 0.0
2017-Sep-13 07:30N 54°22' E 018°40'0 0.0
2017-Sep-13 07:00N 54°22' E 018°40'0 0.0
2017-Sep-13 06:30N 54°22' E 018°40'0 0.0
2017-Sep-13 06:00N 54°22' E 018°40'0 0.0
2017-Sep-13 05:30N 54°22' E 018°40'0 0.0
2017-Sep-13 05:00N 54°22' E 018°40'0 0.0
2017-Sep-13 04:30N 54°22' E 018°40'0 0.0
2017-Sep-13 04:00N 54°22' E 018°40'0 0.0
2017-Sep-13 03:30N 54°22' E 018°40'0 0.0
2017-Sep-13 03:00N 54°22' E 018°40'0 0.0
2017-Sep-13 02:27N 54°22' E 018°40'0 0.0
2017-Sep-13 02:00N 54°22' E 018°40'0 0.0
2017-Sep-13 01:30N 54°22' E 018°40'0 0.0
2017-Sep-13 01:00N 54°22' E 018°40'0 0.0
2017-Sep-13 00:27N 54°22' E 018°40'0 0.0
2017-Sep-13 00:00N 54°22' E 018°40'0 0.0
2017-Sep-12 23:30N 54°22' E 018°40'0 0.0
2017-Sep-12 23:00N 54°22' E 018°40'0 0.0
2017-Sep-12 22:30N 54°22' E 018°40'0 0.6
2017-Sep-12 22:00N 54°22' E 018°40'1 3.0
2017-Sep-12 21:31N 54°23' E 018°40'3 5.1
2017-Sep-12 21:00N 54°26' E 018°39'1 1.1
2017-Sep-12 20:28N 54°26' E 018°39'0 0.0
2017-Sep-12 19:58N 54°26' E 018°39'0 0.0
2017-Sep-12 19:28N 54°26' E 018°39'0 0.0
2017-Sep-12 18:58N 54°26' E 018°39'0 0.0
2017-Sep-12 18:28N 54°26' E 018°39'0 0.0
2017-Sep-12 17:58N 54°26' E 018°39'0 0.0
2017-Sep-12 17:28N 54°26' E 018°39'0 0.0
2017-Sep-12 16:58N 54°26' E 018°39'0 0.0
2017-Sep-12 16:25N 54°26' E 018°39'0 0.0
2017-Sep-12 15:58N 54°26' E 018°39'0 0.1
2017-Sep-12 15:28N 54°26' E 018°39'0 0.0
2017-Sep-12 14:58N 54°26' E 018°39'0 0.0
2017-Sep-12 14:28N 54°26' E 018°39'0 0.0
2017-Sep-12 13:58N 54°26' E 018°39'0 0.0
2017-Sep-12 13:28N 54°26' E 018°39'0 0.0
2017-Sep-12 12:58N 54°26' E 018°39'0 0.0
2017-Sep-12 12:28N 54°26' E 018°39'0 0.0
2017-Sep-12 11:58N 54°26' E 018°39'0 0.0
2017-Sep-12 11:28N 54°26' E 018°39'0 0.0
2017-Sep-12 10:58N 54°26' E 018°39'0 0.0
2017-Sep-12 10:28N 54°26' E 018°39'0 0.0
2017-Sep-12 09:58N 54°26' E 018°39'0 0.1
2017-Sep-12 09:28N 54°26' E 018°39'0 0.1
2017-Sep-12 08:55N 54°26' E 018°39'0 0.0
2017-Sep-12 08:28N 54°26' E 018°39'0 0.0
2017-Sep-12 07:58N 54°26' E 018°39'0 0.0
2017-Sep-12 07:25N 54°26' E 018°39'0 0.0
2017-Sep-12 06:58N 54°26' E 018°39'0 0.0
2017-Sep-12 06:28N 54°26' E 018°39'0 0.1
2017-Sep-12 05:58N 54°26' E 018°39'0 0.0
2017-Sep-12 05:28N 54°26' E 018°39'0 0.0
2017-Sep-12 04:58N 54°26' E 018°39'0 0.0
2017-Sep-12 04:28N 54°26' E 018°39'0 0.0
2017-Sep-12 03:58N 54°26' E 018°39'0 0.0
2017-Sep-12 03:28N 54°26' E 018°39'0 0.0
2017-Sep-12 02:58N 54°26' E 018°39'0 0.0
2017-Sep-12 02:28N 54°26' E 018°39'  

Dump ship's entire track history